sensor_id;sensor_type;location;lat;lon;timestamp;temperature;humidity
80279;DHT22;70683;52.492;13.416;2023-08-08T00:00:17;16.50;65.00
80279;DHT22;70683;52.492;13.416;2023-08-08T00:02:44;16.50;65.30
80279;DHT22;70683;52.492;13.416;2023-08-08T00:05:11;16.50;65.10
80279;DHT22;70683;52.492;13.416;2023-08-08T00:07:37;16.50;65.40
80279;DHT22;70683;52.492;13.416;2023-08-08T00:10:05;16.50;65.80
80279;DHT22;70683;52.492;13.416;2023-08-08T00:12:31;16.40;65.80
80279;DHT22;70683;52.492;13.416;2023-08-08T00:14:58;16.50;65.90
80279;DHT22;70683;52.492;13.416;2023-08-08T00:17:25;16.50;65.90
80279;DHT22;70683;52.492;13.416;2023-08-08T00:19:51;16.40;65.90
80279;DHT22;70683;52.492;13.416;2023-08-08T00:22:18;16.40;66.20
80279;DHT22;70683;52.492;13.416;2023-08-08T00:24:44;16.30;66.60
80279;DHT22;70683;52.492;13.416;2023-08-08T00:27:12;16.20;67.20
80279;DHT22;70683;52.492;13.416;2023-08-08T00:29:38;16.20;67.70
80279;DHT22;70683;52.492;13.416;2023-08-08T00:32:05;16.10;67.60
80279;DHT22;70683;52.492;13.416;2023-08-08T00:34:32;16.10;67.60
80279;DHT22;70683;52.492;13.416;2023-08-08T00:36:59;16.10;67.50
80279;DHT22;70683;52.492;13.416;2023-08-08T00:39:25;16.10;67.80
80279;DHT22;70683;52.492;13.416;2023-08-08T00:41:52;16.10;67.80
80279;DHT22;70683;52.492;13.416;2023-08-08T00:44:18;16.10;67.50
80279;DHT22;70683;52.492;13.416;2023-08-08T00:46:45;16.10;67.70
80279;DHT22;70683;52.492;13.416;2023-08-08T00:49:12;16.00;67.70
80279;DHT22;70683;52.492;13.416;2023-08-08T00:51:39;16.00;67.90
80279;DHT22;70683;52.492;13.416;2023-08-08T00:54:05;16.00;67.90
80279;DHT22;70683;52.492;13.416;2023-08-08T00:56:32;16.00;67.60
80279;DHT22;70683;52.492;13.416;2023-08-08T00:58:59;15.90;67.90
80279;DHT22;70683;52.492;13.416;2023-08-08T01:01:26;15.90;67.80
80279;DHT22;70683;52.492;13.416;2023-08-08T01:03:53;15.90;67.80
80279;DHT22;70683;52.492;13.416;2023-08-08T01:06:23;15.90;68.10
80279;DHT22;70683;52.492;13.416;2023-08-08T01:08:57;15.90;67.70
80279;DHT22;70683;52.492;13.416;2023-08-08T01:11:25;15.80;68.00
80279;DHT22;70683;52.492;13.416;2023-08-08T01:13:54;15.80;68.10
80279;DHT22;70683;52.492;13.416;2023-08-08T01:16:23;15.80;67.90
80279;DHT22;70683;52.492;13.416;2023-08-08T01:18:50;15.70;68.20
80279;DHT22;70683;52.492;13.416;2023-08-08T01:21:17;15.70;67.90
80279;DHT22;70683;52.492;13.416;2023-08-08T01:23:52;15.70;68.10
80279;DHT22;70683;52.492;13.416;2023-08-08T01:26:18;15.80;68.70
80279;DHT22;70683;52.492;13.416;2023-08-08T01:28:46;15.70;67.90
80279;DHT22;70683;52.492;13.416;2023-08-08T01:31:13;15.70;68.30
80279;DHT22;70683;52.492;13.416;2023-08-08T01:33:40;15.70;67.70
80279;DHT22;70683;52.492;13.416;2023-08-08T01:36:12;15.60;68.10
80279;DHT22;70683;52.492;13.416;2023-08-08T01:38:43;15.70;67.90
80279;DHT22;70683;52.492;13.416;2023-08-08T01:41:10;15.60;67.30
80279;DHT22;70683;52.492;13.416;2023-08-08T01:43:38;15.60;67.60
80279;DHT22;70683;52.492;13.416;2023-08-08T01:46:05;15.60;67.40
80279;DHT22;70683;52.492;13.416;2023-08-08T01:48:32;15.60;67.90
80279;DHT22;70683;52.492;13.416;2023-08-08T01:50:59;15.70;67.50
80279;DHT22;70683;52.492;13.416;2023-08-08T01:53:26;15.60;67.00
80279;DHT22;70683;52.492;13.416;2023-08-08T01:55:52;15.60;67.20
80279;DHT22;70683;52.492;13.416;2023-08-08T01:58:19;15.60;67.30
80279;DHT22;70683;52.492;13.416;2023-08-08T02:00:46;15.60;67.20
80279;DHT22;70683;52.492;13.416;2023-08-08T02:03:13;15.60;66.10
80279;DHT22;70683;52.492;13.416;2023-08-08T02:05:40;15.50;66.60
80279;DHT22;70683;52.492;13.416;2023-08-08T02:08:07;15.50;67.90
80279;DHT22;70683;52.492;13.416;2023-08-08T02:10:34;15.60;66.80
80279;DHT22;70683;52.492;13.416;2023-08-08T02:13:00;15.60;66.70
80279;DHT22;70683;52.492;13.416;2023-08-08T02:15:27;15.60;66.40
80279;DHT22;70683;52.492;13.416;2023-08-08T02:17:53;15.60;67.10
80279;DHT22;70683;52.492;13.416;2023-08-08T02:20:20;15.60;66.10
80279;DHT22;70683;52.492;13.416;2023-08-08T02:22:47;15.60;65.90
80279;DHT22;70683;52.492;13.416;2023-08-08T02:25:14;15.60;66.40
80279;DHT22;70683;52.492;13.416;2023-08-08T02:27:40;15.60;65.90
80279;DHT22;70683;52.492;13.416;2023-08-08T02:30:08;15.60;66.20
80279;DHT22;70683;52.492;13.416;2023-08-08T02:32:35;15.60;66.70
80279;DHT22;70683;52.492;13.416;2023-08-08T02:35:01;15.70;66.50
80279;DHT22;70683;52.492;13.416;2023-08-08T02:37:28;15.70;66.50
80279;DHT22;70683;52.492;13.416;2023-08-08T02:39:55;15.60;66.60
80279;DHT22;70683;52.492;13.416;2023-08-08T02:42:21;15.60;67.80
80279;DHT22;70683;52.492;13.416;2023-08-08T02:44:48;15.50;67.60
80279;DHT22;70683;52.492;13.416;2023-08-08T02:47:15;15.50;67.40
80279;DHT22;70683;52.492;13.416;2023-08-08T02:49:41;15.50;67.70
80279;DHT22;70683;52.492;13.416;2023-08-08T02:52:08;15.50;68.00
80279;DHT22;70683;52.492;13.416;2023-08-08T02:54:34;15.50;68.60
80279;DHT22;70683;52.492;13.416;2023-08-08T02:57:01;15.40;68.50
80279;DHT22;70683;52.492;13.416;2023-08-08T02:59:28;15.50;68.40
80279;DHT22;70683;52.492;13.416;2023-08-08T03:01:55;15.40;68.80
80279;DHT22;70683;52.492;13.416;2023-08-08T03:04:21;15.30;70.00
80279;DHT22;70683;52.492;13.416;2023-08-08T03:06:48;15.40;69.60
80279;DHT22;70683;52.492;13.416;2023-08-08T03:09:15;15.40;69.50
80279;DHT22;70683;52.492;13.416;2023-08-08T03:11:41;15.40;70.00
80279;DHT22;70683;52.492;13.416;2023-08-08T03:14:08;15.30;69.80
80279;DHT22;70683;52.492;13.416;2023-08-08T03:16:35;15.20;70.10
80279;DHT22;70683;52.492;13.416;2023-08-08T03:19:02;15.20;70.30
80279;DHT22;70683;52.492;13.416;2023-08-08T03:21:30;15.30;70.40
80279;DHT22;70683;52.492;13.416;2023-08-08T03:23:57;15.30;70.20
80279;DHT22;70683;52.492;13.416;2023-08-08T03:26:23;15.30;70.40
80279;DHT22;70683;52.492;13.416;2023-08-08T03:28:50;15.30;70.40
80279;DHT22;70683;52.492;13.416;2023-08-08T03:31:20;15.30;70.60
80279;DHT22;70683;52.492;13.416;2023-08-08T03:33:47;15.40;70.90
80279;DHT22;70683;52.492;13.416;2023-08-08T03:36:14;15.30;70.70
80279;DHT22;70683;52.492;13.416;2023-08-08T03:38:41;15.30;70.90
80279;DHT22;70683;52.492;13.416;2023-08-08T03:41:09;15.30;70.70
80279;DHT22;70683;52.492;13.416;2023-08-08T03:43:36;15.30;71.30
80279;DHT22;70683;52.492;13.416;2023-08-08T03:46:03;15.30;71.90
80279;DHT22;70683;52.492;13.416;2023-08-08T03:48:29;15.30;71.40
80279;DHT22;70683;52.492;13.416;2023-08-08T03:50:56;15.30;71.50
80279;DHT22;70683;52.492;13.416;2023-08-08T03:53:23;15.40;71.60
80279;DHT22;70683;52.492;13.416;2023-08-08T03:55:50;15.30;71.10
80279;DHT22;70683;52.492;13.416;2023-08-08T03:58:18;15.40;71.00
80279;DHT22;70683;52.492;13.416;2023-08-08T04:00:45;15.30;71.20
80279;DHT22;70683;52.492;13.416;2023-08-08T04:03:15;15.40;72.20
80279;DHT22;70683;52.492;13.416;2023-08-08T04:05:45;15.40;71.70
80279;DHT22;70683;52.492;13.416;2023-08-08T04:08:13;15.40;71.20
80279;DHT22;70683;52.492;13.416;2023-08-08T04:10:41;15.40;71.10
80279;DHT22;70683;52.492;13.416;2023-08-08T04:13:07;15.60;71.20
80279;DHT22;70683;52.492;13.416;2023-08-08T04:15:34;15.60;71.40
80279;DHT22;70683;52.492;13.416;2023-08-08T04:18:01;15.60;71.20
80279;DHT22;70683;52.492;13.416;2023-08-08T04:20:27;15.60;71.40
80279;DHT22;70683;52.492;13.416;2023-08-08T04:22:54;15.60;71.10
80279;DHT22;70683;52.492;13.416;2023-08-08T04:25:21;15.70;70.70
80279;DHT22;70683;52.492;13.416;2023-08-08T04:27:48;15.70;70.60
80279;DHT22;70683;52.492;13.416;2023-08-08T04:30:14;15.70;70.70
80279;DHT22;70683;52.492;13.416;2023-08-08T04:32:41;15.80;70.70
80279;DHT22;70683;52.492;13.416;2023-08-08T04:35:07;15.80;70.30
80279;DHT22;70683;52.492;13.416;2023-08-08T04:37:34;15.90;70.50
80279;DHT22;70683;52.492;13.416;2023-08-08T04:40:01;15.90;70.30
80279;DHT22;70683;52.492;13.416;2023-08-08T04:42:28;15.90;70.80
80279;DHT22;70683;52.492;13.416;2023-08-08T04:44:55;15.90;70.90
80279;DHT22;70683;52.492;13.416;2023-08-08T04:47:21;15.90;70.50
80279;DHT22;70683;52.492;13.416;2023-08-08T04:49:48;15.90;70.80
80279;DHT22;70683;52.492;13.416;2023-08-08T04:52:14;15.90;70.60
80279;DHT22;70683;52.492;13.416;2023-08-08T04:54:42;15.90;70.50
80279;DHT22;70683;52.492;13.416;2023-08-08T04:57:10;15.90;70.20
80279;DHT22;70683;52.492;13.416;2023-08-08T04:59:36;15.90;70.50
80279;DHT22;70683;52.492;13.416;2023-08-08T05:02:03;16.00;70.60
80279;DHT22;70683;52.492;13.416;2023-08-08T05:04:30;16.00;70.10
80279;DHT22;70683;52.492;13.416;2023-08-08T05:06:58;16.00;70.00
80279;DHT22;70683;52.492;13.416;2023-08-08T05:09:24;16.10;70.30
80279;DHT22;70683;52.492;13.416;2023-08-08T05:11:53;16.10;70.20
80279;DHT22;70683;52.492;13.416;2023-08-08T05:14:19;16.10;70.10
80279;DHT22;70683;52.492;13.416;2023-08-08T05:16:46;16.20;69.80
80279;DHT22;70683;52.492;13.416;2023-08-08T05:19:13;16.20;69.70
80279;DHT22;70683;52.492;13.416;2023-08-08T05:21:40;16.30;70.00
80279;DHT22;70683;52.492;13.416;2023-08-08T05:24:07;16.30;70.00
80279;DHT22;70683;52.492;13.416;2023-08-08T05:26:34;16.30;70.00
80279;DHT22;70683;52.492;13.416;2023-08-08T05:29:00;16.30;69.30
80279;DHT22;70683;52.492;13.416;2023-08-08T05:31:27;16.40;69.20
80279;DHT22;70683;52.492;13.416;2023-08-08T05:33:53;16.30;69.50
80279;DHT22;70683;52.492;13.416;2023-08-08T05:36:20;16.40;69.50
80279;DHT22;70683;52.492;13.416;2023-08-08T05:38:47;16.40;69.00
80279;DHT22;70683;52.492;13.416;2023-08-08T05:41:13;16.50;68.80
80279;DHT22;70683;52.492;13.416;2023-08-08T05:43:40;16.60;68.80
80279;DHT22;70683;52.492;13.416;2023-08-08T05:46:07;16.70;68.50
80279;DHT22;70683;52.492;13.416;2023-08-08T05:48:33;16.80;68.30
80279;DHT22;70683;52.492;13.416;2023-08-08T05:51:00;16.90;68.10
80279;DHT22;70683;52.492;13.416;2023-08-08T05:53:28;17.10;67.60
80279;DHT22;70683;52.492;13.416;2023-08-08T05:55:55;17.20;68.20
80279;DHT22;70683;52.492;13.416;2023-08-08T05:58:22;17.20;67.40
80279;DHT22;70683;52.492;13.416;2023-08-08T06:00:48;17.20;66.90
80279;DHT22;70683;52.492;13.416;2023-08-08T06:03:16;17.30;66.40
80279;DHT22;70683;52.492;13.416;2023-08-08T06:05:43;17.40;66.20
80279;DHT22;70683;52.492;13.416;2023-08-08T06:08:09;17.40;66.30
80279;DHT22;70683;52.492;13.416;2023-08-08T06:10:38;17.40;66.50
80279;DHT22;70683;52.492;13.416;2023-08-08T06:13:04;17.60;66.20
80279;DHT22;70683;52.492;13.416;2023-08-08T06:15:31;17.60;65.60
80279;DHT22;70683;52.492;13.416;2023-08-08T06:17:57;17.60;66.40
80279;DHT22;70683;52.492;13.416;2023-08-08T06:20:24;17.60;66.70
80279;DHT22;70683;52.492;13.416;2023-08-08T06:22:52;17.60;66.10
80279;DHT22;70683;52.492;13.416;2023-08-08T06:25:18;17.60;67.10
80279;DHT22;70683;52.492;13.416;2023-08-08T06:27:45;17.70;66.00
80279;DHT22;70683;52.492;13.416;2023-08-08T06:30:11;17.70;66.40
80279;DHT22;70683;52.492;13.416;2023-08-08T06:32:38;17.80;66.40
80279;DHT22;70683;52.492;13.416;2023-08-08T06:35:05;18.00;65.90
80279;DHT22;70683;52.492;13.416;2023-08-08T06:37:32;18.10;65.60
80279;DHT22;70683;52.492;13.416;2023-08-08T06:39:58;18.20;64.90
80279;DHT22;70683;52.492;13.416;2023-08-08T06:42:25;18.30;65.40
80279;DHT22;70683;52.492;13.416;2023-08-08T06:44:52;18.40;63.90
80279;DHT22;70683;52.492;13.416;2023-08-08T06:47:18;18.30;64.40
80279;DHT22;70683;52.492;13.416;2023-08-08T06:49:45;18.30;64.70
80279;DHT22;70683;52.492;13.416;2023-08-08T06:52:11;18.20;66.00
80279;DHT22;70683;52.492;13.416;2023-08-08T06:54:38;18.30;65.70
80279;DHT22;70683;52.492;13.416;2023-08-08T06:57:04;18.30;64.70
80279;DHT22;70683;52.492;13.416;2023-08-08T06:59:33;18.40;64.20
80279;DHT22;70683;52.492;13.416;2023-08-08T07:01:59;18.50;63.60
80279;DHT22;70683;52.492;13.416;2023-08-08T07:04:28;18.60;63.50
80279;DHT22;70683;52.492;13.416;2023-08-08T07:06:54;18.60;64.20
80279;DHT22;70683;52.492;13.416;2023-08-08T07:09:21;18.70;63.70
80279;DHT22;70683;52.492;13.416;2023-08-08T07:11:48;18.80;62.70
80279;DHT22;70683;52.492;13.416;2023-08-08T07:14:15;18.90;62.80
80279;DHT22;70683;52.492;13.416;2023-08-08T07:16:42;19.10;62.10
80279;DHT22;70683;52.492;13.416;2023-08-08T07:19:08;19.30;61.20
80279;DHT22;70683;52.492;13.416;2023-08-08T07:21:36;19.40;61.20
80279;DHT22;70683;52.492;13.416;2023-08-08T07:24:03;19.60;60.30
80279;DHT22;70683;52.492;13.416;2023-08-08T07:26:30;19.70;59.60
80279;DHT22;70683;52.492;13.416;2023-08-08T07:28:56;19.80;59.20
80279;DHT22;70683;52.492;13.416;2023-08-08T07:31:23;20.00;58.90
80279;DHT22;70683;52.492;13.416;2023-08-08T07:33:49;20.10;58.30
80279;DHT22;70683;52.492;13.416;2023-08-08T07:36:16;20.10;57.90
80279;DHT22;70683;52.492;13.416;2023-08-08T07:38:43;20.00;58.10
80279;DHT22;70683;52.492;13.416;2023-08-08T07:41:09;20.10;58.40
80279;DHT22;70683;52.492;13.416;2023-08-08T07:43:36;20.30;57.90
80279;DHT22;70683;52.492;13.416;2023-08-08T07:46:02;20.60;57.00
80279;DHT22;70683;52.492;13.416;2023-08-08T07:48:29;20.70;56.30
80279;DHT22;70683;52.492;13.416;2023-08-08T07:50:56;20.70;56.60
80279;DHT22;70683;52.492;13.416;2023-08-08T07:53:22;20.80;56.10
80279;DHT22;70683;52.492;13.416;2023-08-08T07:55:50;20.80;56.70
80279;DHT22;70683;52.492;13.416;2023-08-08T07:58:16;20.70;55.80
80279;DHT22;70683;52.492;13.416;2023-08-08T08:00:43;20.70;56.20
80279;DHT22;70683;52.492;13.416;2023-08-08T08:03:10;20.70;56.20
80279;DHT22;70683;52.492;13.416;2023-08-08T08:05:37;20.60;56.90
80279;DHT22;70683;52.492;13.416;2023-08-08T08:08:04;20.50;57.20
80279;DHT22;70683;52.492;13.416;2023-08-08T08:10:30;20.50;56.60
80279;DHT22;70683;52.492;13.416;2023-08-08T08:12:57;20.60;57.10
80279;DHT22;70683;52.492;13.416;2023-08-08T08:15:25;20.70;56.20
80279;DHT22;70683;52.492;13.416;2023-08-08T08:17:52;20.80;56.10
80279;DHT22;70683;52.492;13.416;2023-08-08T08:20:18;20.90;55.70
80279;DHT22;70683;52.492;13.416;2023-08-08T08:22:45;20.80;56.00
80279;DHT22;70683;52.492;13.416;2023-08-08T08:25:13;20.90;55.20
80279;DHT22;70683;52.492;13.416;2023-08-08T08:27:40;21.20;55.80
80279;DHT22;70683;52.492;13.416;2023-08-08T08:30:08;21.60;55.20
80279;DHT22;70683;52.492;13.416;2023-08-08T08:32:37;22.00;53.00
80279;DHT22;70683;52.492;13.416;2023-08-08T08:35:04;22.30;52.20
80279;DHT22;70683;52.492;13.416;2023-08-08T08:37:35;22.60;50.60
80279;DHT22;70683;52.492;13.416;2023-08-08T08:40:02;22.70;50.30
80279;DHT22;70683;52.492;13.416;2023-08-08T08:42:32;22.70;51.10
80279;DHT22;70683;52.492;13.416;2023-08-08T08:45:01;22.90;50.50
80279;DHT22;70683;52.492;13.416;2023-08-08T08:47:30;22.90;50.20
80279;DHT22;70683;52.492;13.416;2023-08-08T08:49:58;22.70;50.30
80279;DHT22;70683;52.492;13.416;2023-08-08T08:52:25;22.60;50.10
80279;DHT22;70683;52.492;13.416;2023-08-08T08:54:52;22.50;50.60
80279;DHT22;70683;52.492;13.416;2023-08-08T08:57:21;22.70;50.80
80279;DHT22;70683;52.492;13.416;2023-08-08T08:59:51;22.90;50.90
80279;DHT22;70683;52.492;13.416;2023-08-08T09:02:19;23.20;49.70
80279;DHT22;70683;52.492;13.416;2023-08-08T09:04:45;23.20;49.80
80279;DHT22;70683;52.492;13.416;2023-08-08T09:07:12;23.30;49.70
80279;DHT22;70683;52.492;13.416;2023-08-08T09:09:43;23.50;48.80
80279;DHT22;70683;52.492;13.416;2023-08-08T09:12:10;23.80;48.20
80279;DHT22;70683;52.492;13.416;2023-08-08T09:14:41;24.10;47.80
80279;DHT22;70683;52.492;13.416;2023-08-08T09:17:12;24.10;47.30
80279;DHT22;70683;52.492;13.416;2023-08-08T09:19:42;24.10;47.00
80279;DHT22;70683;52.492;13.416;2023-08-08T09:22:10;24.20;47.50
80279;DHT22;70683;52.492;13.416;2023-08-08T09:24:40;24.40;46.90
80279;DHT22;70683;52.492;13.416;2023-08-08T09:27:08;24.70;46.30
80279;DHT22;70683;52.492;13.416;2023-08-08T09:29:36;24.80;45.50
80279;DHT22;70683;52.492;13.416;2023-08-08T09:32:04;24.90;45.60
80279;DHT22;70683;52.492;13.416;2023-08-08T09:34:32;25.00;45.40
80279;DHT22;70683;52.492;13.416;2023-08-08T09:36:59;25.10;44.50
80279;DHT22;70683;52.492;13.416;2023-08-08T09:39:27;24.90;44.50
80279;DHT22;70683;52.492;13.416;2023-08-08T09:41:55;24.90;44.50
80279;DHT22;70683;52.492;13.416;2023-08-08T09:44:24;25.20;44.30
80279;DHT22;70683;52.492;13.416;2023-08-08T09:46:52;25.40;43.10
80279;DHT22;70683;52.492;13.416;2023-08-08T09:49:19;25.60;43.10
80279;DHT22;70683;52.492;13.416;2023-08-08T09:51:48;25.40;42.80
80279;DHT22;70683;52.492;13.416;2023-08-08T09:54:16;25.50;42.70
80279;DHT22;70683;52.492;13.416;2023-08-08T09:56:43;25.70;42.60
80279;DHT22;70683;52.492;13.416;2023-08-08T09:59:10;25.80;42.00
80279;DHT22;70683;52.492;13.416;2023-08-08T10:01:40;25.60;41.20
80279;DHT22;70683;52.492;13.416;2023-08-08T10:04:08;25.20;42.60
80279;DHT22;70683;52.492;13.416;2023-08-08T10:06:36;24.70;43.80
80279;DHT22;70683;52.492;13.416;2023-08-08T10:09:03;23.90;48.80
80279;DHT22;70683;52.492;13.416;2023-08-08T10:11:30;23.10;52.20
80279;DHT22;70683;52.492;13.416;2023-08-08T10:14:02;22.20;54.60
80279;DHT22;70683;52.492;13.416;2023-08-08T10:16:33;21.80;54.40
80279;DHT22;70683;52.492;13.416;2023-08-08T10:19:02;21.40;55.50
80279;DHT22;70683;52.492;13.416;2023-08-08T10:21:34;21.20;57.60
80279;DHT22;70683;52.492;13.416;2023-08-08T10:24:05;21.10;57.10
80279;DHT22;70683;52.492;13.416;2023-08-08T10:26:33;20.90;57.90
80279;DHT22;70683;52.492;13.416;2023-08-08T10:29:01;20.70;58.60
80279;DHT22;70683;52.492;13.416;2023-08-08T10:31:33;20.70;58.10
80279;DHT22;70683;52.492;13.416;2023-08-08T10:34:04;20.90;58.10
80279;DHT22;70683;52.492;13.416;2023-08-08T10:36:44;21.30;57.50
80279;DHT22;70683;52.492;13.416;2023-08-08T10:39:16;21.90;55.80
80279;DHT22;70683;52.492;13.416;2023-08-08T10:41:46;22.20;52.50
80279;DHT22;70683;52.492;13.416;2023-08-08T10:44:13;22.50;52.30
80279;DHT22;70683;52.492;13.416;2023-08-08T10:46:41;22.90;50.30
80279;DHT22;70683;52.492;13.416;2023-08-08T10:49:08;23.20;49.10
80279;DHT22;70683;52.492;13.416;2023-08-08T10:51:38;23.10;48.10
80279;DHT22;70683;52.492;13.416;2023-08-08T10:54:06;23.10;47.70
80279;DHT22;70683;52.492;13.416;2023-08-08T10:56:35;22.80;48.90
80279;DHT22;70683;52.492;13.416;2023-08-08T11:01:37;21.80;54.30
80279;DHT22;70683;52.492;13.416;2023-08-08T11:04:05;21.60;55.70
80279;DHT22;70683;52.492;13.416;2023-08-08T11:06:33;21.50;55.40
80279;DHT22;70683;52.492;13.416;2023-08-08T11:09:01;21.30;55.20
80279;DHT22;70683;52.492;13.416;2023-08-08T11:11:38;21.40;55.00
80279;DHT22;70683;52.492;13.416;2023-08-08T11:14:13;22.00;55.00
80279;DHT22;70683;52.492;13.416;2023-08-08T11:16:41;22.80;53.80
80279;DHT22;70683;52.492;13.416;2023-08-08T11:19:09;23.90;49.40
80279;DHT22;70683;52.492;13.416;2023-08-08T11:21:39;24.70;46.60
80279;DHT22;70683;52.492;13.416;2023-08-08T11:24:06;25.30;45.60
80279;DHT22;70683;52.492;13.416;2023-08-08T11:26:34;26.10;44.10
80279;DHT22;70683;52.492;13.416;2023-08-08T11:29:03;26.10;42.40
80279;DHT22;70683;52.492;13.416;2023-08-08T11:31:30;25.50;44.80
80279;DHT22;70683;52.492;13.416;2023-08-08T11:33:59;24.50;47.80
80279;DHT22;70683;52.492;13.416;2023-08-08T11:36:29;23.60;49.70
80279;DHT22;70683;52.492;13.416;2023-08-08T11:38:57;22.90;49.70
80279;DHT22;70683;52.492;13.416;2023-08-08T11:41:24;22.30;51.60
80279;DHT22;70683;52.492;13.416;2023-08-08T11:43:52;21.80;52.90
80279;DHT22;70683;52.492;13.416;2023-08-08T11:46:23;21.40;54.10
80279;DHT22;70683;52.492;13.416;2023-08-08T11:48:50;21.00;55.50
80279;DHT22;70683;52.492;13.416;2023-08-08T11:51:17;20.80;55.90
80279;DHT22;70683;52.492;13.416;2023-08-08T11:53:49;20.80;57.00
80279;DHT22;70683;52.492;13.416;2023-08-08T11:56:19;21.40;56.80
80279;DHT22;70683;52.492;13.416;2023-08-08T11:58:49;22.30;54.80
80279;DHT22;70683;52.492;13.416;2023-08-08T12:01:20;23.10;52.70
80279;DHT22;70683;52.492;13.416;2023-08-08T12:03:47;23.50;51.80
80279;DHT22;70683;52.492;13.416;2023-08-08T12:06:14;23.70;50.30
80279;DHT22;70683;52.492;13.416;2023-08-08T12:08:43;23.90;50.20
80279;DHT22;70683;52.492;13.416;2023-08-08T12:11:11;24.30;49.30
80279;DHT22;70683;52.492;13.416;2023-08-08T12:13:40;24.80;47.60
80279;DHT22;70683;52.492;13.416;2023-08-08T12:16:10;25.50;46.90
80279;DHT22;70683;52.492;13.416;2023-08-08T12:18:38;26.80;44.00
80279;DHT22;70683;52.492;13.416;2023-08-08T12:21:06;28.50;41.40
80279;DHT22;70683;52.492;13.416;2023-08-08T12:23:34;30.20;37.10
80279;DHT22;70683;52.492;13.416;2023-08-08T12:26:03;31.30;33.60
80279;DHT22;70683;52.492;13.416;2023-08-08T12:28:31;32.60;31.80
80279;DHT22;70683;52.492;13.416;2023-08-08T12:30:58;33.60;29.50
80279;DHT22;70683;52.492;13.416;2023-08-08T12:33:25;34.50;28.60
80279;DHT22;70683;52.492;13.416;2023-08-08T12:35:52;34.70;27.50
80279;DHT22;70683;52.492;13.416;2023-08-08T12:38:19;34.30;27.20
80279;DHT22;70683;52.492;13.416;2023-08-08T12:40:45;32.80;28.70
80279;DHT22;70683;52.492;13.416;2023-08-08T12:43:12;30.80;31.10
80279;DHT22;70683;52.492;13.416;2023-08-08T12:45:40;29.10;35.30
80279;DHT22;70683;52.492;13.416;2023-08-08T12:48:07;27.80;38.20
80279;DHT22;70683;52.492;13.416;2023-08-08T12:50:34;27.10;40.40
80279;DHT22;70683;52.492;13.416;2023-08-08T12:53:00;27.60;40.60
80279;DHT22;70683;52.492;13.416;2023-08-08T12:55:27;28.70;38.30
80279;DHT22;70683;52.492;13.416;2023-08-08T12:57:53;29.40;36.00
80279;DHT22;70683;52.492;13.416;2023-08-08T13:00:20;29.50;35.80
80279;DHT22;70683;52.492;13.416;2023-08-08T13:02:47;29.10;36.20
80279;DHT22;70683;52.492;13.416;2023-08-08T13:05:14;28.40;37.40
80279;DHT22;70683;52.492;13.416;2023-08-08T13:07:42;27.30;41.10
80279;DHT22;70683;52.492;13.416;2023-08-08T13:10:09;26.40;44.00
80279;DHT22;70683;52.492;13.416;2023-08-08T13:12:36;25.50;46.80
80279;DHT22;70683;52.492;13.416;2023-08-08T13:15:03;25.60;47.40
80279;DHT22;70683;52.492;13.416;2023-08-08T13:17:31;26.20;46.30
80279;DHT22;70683;52.492;13.416;2023-08-08T13:19:57;26.30;43.90
80279;DHT22;70683;52.492;13.416;2023-08-08T13:22:24;26.10;44.50
80279;DHT22;70683;52.492;13.416;2023-08-08T13:24:50;26.30;44.40
80279;DHT22;70683;52.492;13.416;2023-08-08T13:27:17;27.00;42.10
80279;DHT22;70683;52.492;13.416;2023-08-08T13:29:44;27.30;41.40
80279;DHT22;70683;52.492;13.416;2023-08-08T13:32:10;28.10;39.40
80279;DHT22;70683;52.492;13.416;2023-08-08T13:34:37;28.50;37.80
80279;DHT22;70683;52.492;13.416;2023-08-08T13:37:03;28.40;37.10
80279;DHT22;70683;52.492;13.416;2023-08-08T13:39:31;28.00;36.80
80279;DHT22;70683;52.492;13.416;2023-08-08T13:41:57;27.20;38.00
80279;DHT22;70683;52.492;13.416;2023-08-08T13:44:24;26.40;39.50
80279;DHT22;70683;52.492;13.416;2023-08-08T13:46:50;25.40;44.90
80279;DHT22;70683;52.492;13.416;2023-08-08T13:49:17;24.20;49.30
80279;DHT22;70683;52.492;13.416;2023-08-08T13:51:44;23.10;53.50
80279;DHT22;70683;52.492;13.416;2023-08-08T13:54:10;21.80;57.90
80279;DHT22;70683;52.492;13.416;2023-08-08T13:56:37;20.80;60.50
80279;DHT22;70683;52.492;13.416;2023-08-08T13:59:04;20.00;63.80
80279;DHT22;70683;52.492;13.416;2023-08-08T14:01:30;19.60;63.90
80279;DHT22;70683;52.492;13.416;2023-08-08T14:03:57;19.30;64.90
80279;DHT22;70683;52.492;13.416;2023-08-08T14:06:24;19.10;66.00
80279;DHT22;70683;52.492;13.416;2023-08-08T14:08:50;19.00;66.00
80279;DHT22;70683;52.492;13.416;2023-08-08T14:11:18;18.90;66.40
80279;DHT22;70683;52.492;13.416;2023-08-08T14:13:44;19.10;66.20
80279;DHT22;70683;52.492;13.416;2023-08-08T14:16:11;19.10;66.30
80279;DHT22;70683;52.492;13.416;2023-08-08T14:18:38;19.20;65.30
80279;DHT22;70683;52.492;13.416;2023-08-08T14:21:05;19.20;65.10
80279;DHT22;70683;52.492;13.416;2023-08-08T14:23:32;19.20;65.40
80279;DHT22;70683;52.492;13.416;2023-08-08T14:25:58;19.20;64.40
80279;DHT22;70683;52.492;13.416;2023-08-08T14:28:25;19.20;63.20
80279;DHT22;70683;52.492;13.416;2023-08-08T14:30:51;19.30;62.20
80279;DHT22;70683;52.492;13.416;2023-08-08T14:33:18;19.30;59.90
80279;DHT22;70683;52.492;13.416;2023-08-08T14:35:45;19.30;60.40
80279;DHT22;70683;52.492;13.416;2023-08-08T14:38:11;19.20;62.90
80279;DHT22;70683;52.492;13.416;2023-08-08T14:40:38;19.20;61.70
80279;DHT22;70683;52.492;13.416;2023-08-08T14:43:05;19.20;59.50
80279;DHT22;70683;52.492;13.416;2023-08-08T14:45:33;19.20;60.70
80279;DHT22;70683;52.492;13.416;2023-08-08T14:48:00;19.30;59.70
80279;DHT22;70683;52.492;13.416;2023-08-08T14:50:26;19.30;59.70
80279;DHT22;70683;52.492;13.416;2023-08-08T14:52:53;19.40;59.50
80279;DHT22;70683;52.492;13.416;2023-08-08T14:55:20;19.50;60.90
80279;DHT22;70683;52.492;13.416;2023-08-08T14:57:46;19.60;59.70
80279;DHT22;70683;52.492;13.416;2023-08-08T15:00:13;19.70;58.80
80279;DHT22;70683;52.492;13.416;2023-08-08T15:02:40;19.80;58.40
80279;DHT22;70683;52.492;13.416;2023-08-08T15:05:07;19.90;58.70
80279;DHT22;70683;52.492;13.416;2023-08-08T15:07:34;20.00;58.10
80279;DHT22;70683;52.492;13.416;2023-08-08T15:10:01;20.10;58.70
80279;DHT22;70683;52.492;13.416;2023-08-08T15:12:27;20.20;58.30
80279;DHT22;70683;52.492;13.416;2023-08-08T15:14:54;20.30;57.50
80279;DHT22;70683;52.492;13.416;2023-08-08T15:17:20;20.50;55.80